createdAt,value
2023-04-13T00:00:37.026Z,99173.22
2023-04-13T00:03:04.458Z,99173.00
2023-04-13T00:05:34.257Z,99172.75
2023-04-13T00:08:03.464Z,99182.84
2023-04-13T00:10:37.100Z,99185.72
2023-04-13T00:13:05.052Z,99171.72
2023-04-13T00:15:32.138Z,99170.59
2023-04-13T00:17:58.724Z,99171.56
2023-04-13T00:20:25.230Z,99175.75
2023-04-13T00:22:52.071Z,99180.75
2023-04-13T00:25:18.562Z,99180.88
2023-04-13T00:27:45.170Z,99181.06
2023-04-13T00:30:16.256Z,99194.66
2023-04-13T00:32:44.337Z,99194.66
2023-04-13T00:35:12.775Z,99196.41
2023-04-13T00:37:39.670Z,99193.06
2023-04-13T00:40:08.486Z,99186.41
2023-04-13T00:42:36.187Z,99190.88
2023-04-13T00:45:03.027Z,99192.44
2023-04-13T00:47:33.938Z,99183.19
2023-04-13T00:50:01.649Z,99175.53
2023-04-13T00:52:29.019Z,99168.88
2023-04-13T00:54:57.835Z,99174.53
2023-04-13T00:57:25.371Z,99180.78
2023-04-13T00:59:52.778Z,99176.41
2023-04-13T01:02:26.291Z,99178.97
2023-04-13T01:04:54.873Z,99184.00
2023-04-13T01:07:47.301Z,99182.19
2023-04-13T01:10:19.491Z,99177.50
2023-04-13T01:12:54.905Z,99187.75
2023-04-13T01:15:23.178Z,99183.28
2023-04-13T01:18:07.160Z,99182.00
2023-04-13T01:20:37.053Z,99183.13
2023-04-13T01:23:09.384Z,99184.97
2023-04-13T01:25:57.737Z,99190.09
2023-04-13T01:28:26.225Z,99199.25
2023-04-13T01:30:53.942Z,99193.28
2023-04-13T01:33:21.544Z,99185.56
2023-04-13T01:35:50.154Z,99186.88
2023-04-13T01:38:24.444Z,99187.91
2023-04-13T01:40:51.762Z,99175.78
2023-04-13T01:43:20.339Z,99185.22
2023-04-13T01:45:53.584Z,99175.91
2023-04-13T01:48:27.218Z,99178.13
2023-04-13T01:51:03.878Z,99177.00
2023-04-13T01:53:59.426Z,99166.59
2023-04-13T01:56:26.675Z,99171.63
2023-04-13T01:58:58.688Z,99171.13
2023-04-13T02:01:25.871Z,99168.28
2023-04-13T02:03:53.382Z,99164.44
2023-04-13T02:06:20.748Z,99166.22
2023-04-13T02:08:47.241Z,99156.84
2023-04-13T02:11:13.893Z,99156.13
2023-04-13T02:13:40.326Z,99158.91
2023-04-13T02:16:07.316Z,99153.94
2023-04-13T02:18:33.816Z,99154.78
2023-04-13T02:21:07.815Z,99159.16
2023-04-13T02:23:35.336Z,99157.94
2023-04-13T02:26:02.759Z,99156.94
2023-04-13T02:28:30.050Z,99157.41
2023-04-13T02:30:57.272Z,99142.72
2023-04-13T02:33:24.099Z,99148.44
2023-04-13T02:35:50.934Z,99152.41
2023-04-13T02:38:17.824Z,99156.22
2023-04-13T02:40:44.319Z,99157.44
2023-04-13T02:43:10.788Z,99158.28
2023-04-13T02:45:39.196Z,99160.09
2023-04-13T02:48:06.785Z,99164.94
2023-04-13T02:50:33.198Z,99161.66
2023-04-13T02:52:59.595Z,99161.63
2023-04-13T02:55:26.543Z,99148.88
2023-04-13T02:57:54.116Z,99152.53
2023-04-13T03:00:21.094Z,99155.47
2023-04-13T03:02:48.049Z,99154.69
2023-04-13T03:05:14.681Z,99149.94
2023-04-13T03:07:41.154Z,99148.88
2023-04-13T03:10:08.862Z,99150.41
2023-04-13T03:12:35.337Z,99148.72
2023-04-13T03:15:04.918Z,99147.78
2023-04-13T03:17:31.365Z,99150.41
2023-04-13T03:19:58.419Z,99145.47
2023-04-13T03:22:26.050Z,99145.84
2023-04-13T03:24:52.534Z,99150.28
2023-04-13T03:27:21.428Z,99155.59
2023-04-13T03:29:47.836Z,99154.09
2023-04-13T03:32:14.239Z,99155.94
2023-04-13T03:34:44.067Z,99159.75
2023-04-13T03:37:11.323Z,99166.94
2023-04-13T03:39:39.259Z,99168.28
2023-04-13T03:42:05.822Z,99166.38
2023-04-13T03:44:32.973Z,99178.03
2023-04-13T03:46:59.464Z,99170.09
2023-04-13T03:49:25.935Z,99187.78
2023-04-13T03:51:52.401Z,99179.97
2023-04-13T03:54:18.796Z,99191.63
2023-04-13T03:56:45.539Z,99183.06
2023-04-13T03:59:11.953Z,99187.22
2023-04-13T04:01:38.379Z,99197.25
2023-04-13T04:04:05.013Z,99201.63
2023-04-13T04:06:31.782Z,99195.91
2023-04-13T04:08:58.288Z,99198.28
2023-04-13T04:11:24.784Z,99197.25
2023-04-13T04:13:51.159Z,99195.66
2023-04-13T04:16:17.664Z,99196.28
2023-04-13T04:18:44.285Z,99194.19
2023-04-13T04:21:13.167Z,99200.88
2023-04-13T04:23:39.993Z,99198.19
2023-04-13T04:26:07.420Z,99197.38
2023-04-13T04:28:39.927Z,99213.09
2023-04-13T04:31:10.393Z,99200.91
2023-04-13T04:33:38.643Z,99202.84
2023-04-13T04:36:10.076Z,99205.28
2023-04-13T04:38:36.634Z,99201.84
2023-04-13T04:41:03.070Z,99203.22
2023-04-13T04:43:30.331Z,99212.25
2023-04-13T04:45:59.453Z,99218.59
2023-04-13T04:48:27.045Z,99203.94
2023-04-13T04:50:54.204Z,99213.03
2023-04-13T04:53:21.193Z,99221.69
2023-04-13T04:55:47.731Z,99216.56
2023-04-13T04:58:14.246Z,99216.09
2023-04-13T05:00:40.679Z,99224.16
2023-04-13T05:03:08.268Z,99221.88
2023-04-13T05:05:35.338Z,99231.75
2023-04-13T05:08:01.976Z,99223.91
2023-04-13T05:10:29.567Z,99227.09
2023-04-13T05:12:56.750Z,99233.63
2023-04-13T05:15:23.361Z,99233.56
2023-04-13T05:17:50.913Z,99233.34
2023-04-13T05:20:17.915Z,99240.91
2023-04-13T05:22:44.342Z,99239.75
2023-04-13T05:25:11.096Z,99239.50
2023-04-13T05:27:38.069Z,99238.78
2023-04-13T05:30:05.947Z,99242.06
2023-04-13T05:32:35.679Z,99248.25
2023-04-13T05:35:02.484Z,99242.88
2023-04-13T05:37:28.939Z,99233.03
2023-04-13T05:39:55.401Z,99241.38
2023-04-13T05:42:21.834Z,99248.09
2023-04-13T05:44:48.320Z,99254.97
2023-04-13T05:47:14.762Z,99253.28
2023-04-13T05:49:41.399Z,99247.81
2023-04-13T05:52:08.161Z,99247.34
2023-04-13T05:54:34.635Z,99236.97
2023-04-13T05:57:01.029Z,99247.81
2023-04-13T05:59:27.472Z,99260.34
2023-04-13T06:01:54.103Z,99253.25
2023-04-13T06:04:21.020Z,99253.41
2023-04-13T06:06:47.926Z,99238.88
2023-04-13T06:09:14.741Z,99252.78
2023-04-13T06:11:41.711Z,99249.44
2023-04-13T06:14:08.119Z,99242.97
2023-04-13T06:16:34.622Z,99252.53
2023-04-13T06:19:01.310Z,99264.84
2023-04-13T06:21:30.094Z,99262.09
2023-04-13T06:23:57.016Z,99253.00
2023-04-13T06:26:23.486Z,99270.03
2023-04-13T06:28:50.003Z,99274.50
2023-04-13T06:31:16.644Z,99273.88
2023-04-13T06:33:43.347Z,99272.47
2023-04-13T06:36:10.403Z,99270.25
2023-04-13T06:38:36.840Z,99276.00
2023-04-13T06:41:04.570Z,99270.09
2023-04-13T06:43:31.485Z,99270.81
2023-04-13T06:46:02.260Z,99259.44
2023-04-13T06:48:30.667Z,99264.72
2023-04-13T06:50:57.478Z,99261.81
2023-04-13T06:53:23.938Z,99266.38
2023-04-13T06:55:50.948Z,99267.53
2023-04-13T06:58:17.393Z,99268.63
2023-04-13T07:00:43.969Z,99266.19
2023-04-13T07:03:10.680Z,99253.88
2023-04-13T07:05:38.782Z,99263.88
2023-04-13T07:08:06.367Z,99265.81
2023-04-13T07:10:32.841Z,99262.78
2023-04-13T07:12:59.234Z,99253.75
2023-04-13T07:15:25.691Z,99267.09
2023-04-13T07:17:52.457Z,99267.28
2023-04-13T07:20:19.140Z,99266.59
2023-04-13T07:22:45.853Z,99268.94
2023-04-13T07:25:12.387Z,99271.53
2023-04-13T07:27:38.827Z,99273.84
2023-04-13T07:30:06.574Z,99280.56
2023-04-13T07:32:33.009Z,99289.25
2023-04-13T07:35:01.950Z,99279.81
2023-04-13T07:37:29.622Z,99284.19
2023-04-13T07:39:56.078Z,99281.63
2023-04-13T07:42:22.545Z,99283.19
2023-04-13T07:44:48.965Z,99291.25
2023-04-13T07:47:16.634Z,99296.19
2023-04-13T07:49:43.075Z,99298.25
2023-04-13T07:52:09.510Z,99304.19
2023-04-13T07:54:36.377Z,99296.75
2023-04-13T07:57:03.833Z,99318.19
2023-04-13T07:59:30.464Z,99313.84
2023-04-13T08:01:56.916Z,99315.22
2023-04-13T08:04:23.669Z,99319.72
2023-04-13T08:06:50.354Z,99317.19
2023-04-13T08:09:16.743Z,99330.13
2023-04-13T08:11:43.291Z,99322.97
2023-04-13T08:14:11.632Z,99321.75
2023-04-13T08:16:38.300Z,99329.50
2023-04-13T08:19:04.831Z,99326.75
2023-04-13T08:21:32.682Z,99330.97
2023-04-13T08:23:59.172Z,99327.91
2023-04-13T08:26:26.289Z,99327.97
2023-04-13T08:28:55.884Z,99339.34
2023-04-13T08:31:22.520Z,99341.41
2023-04-13T08:33:49.008Z,99333.91
2023-04-13T08:36:17.376Z,99333.16
2023-04-13T08:38:43.865Z,99339.50
2023-04-13T08:41:10.754Z,99327.13
2023-04-13T08:43:38.325Z,99337.06
2023-04-13T08:46:05.831Z,99326.09
2023-04-13T08:48:42.689Z,99315.47
2023-04-13T08:51:18.133Z,99329.41
2023-04-13T08:53:44.586Z,99323.00
2023-04-13T08:56:14.584Z,99323.69
2023-04-13T08:58:42.907Z,99331.25
2023-04-13T09:01:14.039Z,99328.84
2023-04-13T09:03:50.956Z,99327.22
2023-04-13T09:06:34.792Z,99335.47
2023-04-13T09:09:05.935Z,99329.56
2023-04-13T09:11:32.705Z,99332.13
2023-04-13T09:13:59.337Z,99333.78
2023-04-13T09:16:26.389Z,99340.44
2023-04-13T09:18:58.072Z,99347.50
2023-04-13T09:21:37.370Z,99348.22
2023-04-13T09:24:05.951Z,99337.84
2023-04-13T09:26:43.132Z,99346.28
2023-04-13T09:29:20.491Z,99356.13
2023-04-13T09:31:48.197Z,99362.06
2023-04-13T09:34:25.842Z,99360.84
2023-04-13T09:36:54.852Z,99371.56
2023-04-13T09:39:27.544Z,99376.81
2023-04-13T09:41:55.076Z,99383.22
2023-04-13T09:44:24.620Z,99383.31
2023-04-13T09:47:02.297Z,99369.03
2023-04-13T09:49:43.085Z,99370.41
2023-04-13T09:52:23.469Z,99382.97
2023-04-13T09:54:51.963Z,99379.78
2023-04-13T09:57:29.287Z,99380.44
2023-04-13T09:59:57.822Z,99386.00
2023-04-13T10:02:25.971Z,99379.06
2023-04-13T10:04:52.995Z,99375.59
2023-04-13T10:07:21.024Z,99378.66
2023-04-13T10:09:47.796Z,99390.75
2023-04-13T10:12:16.683Z,99393.81
2023-04-13T10:14:48.799Z,99403.34
2023-04-13T10:17:37.413Z,99388.16
2023-04-13T10:20:13.709Z,99401.13
2023-04-13T10:22:43.982Z,99404.13
2023-04-13T10:25:32.262Z,99424.03
2023-04-13T10:28:00.666Z,99424.44
2023-04-13T10:30:28.001Z,99422.50
2023-04-13T10:33:09.604Z,99427.19
2023-04-13T10:35:37.369Z,99421.84
2023-04-13T10:38:05.047Z,99429.63
2023-04-13T10:40:45.497Z,99432.06
2023-04-13T10:43:12.527Z,99432.03
2023-04-13T10:45:39.066Z,99423.34
2023-04-13T10:48:06.453Z,99436.09
2023-04-13T10:50:32.991Z,99437.41
2023-04-13T10:53:05.006Z,99438.22
2023-04-13T10:55:32.617Z,99441.69
2023-04-13T10:58:01.153Z,99453.22
2023-04-13T11:00:44.534Z,99451.63
2023-04-13T11:03:17.174Z,99469.13
2023-04-13T11:05:48.367Z,99454.00
2023-04-13T11:08:21.446Z,99473.16
2023-04-13T11:10:55.928Z,99474.00
2023-04-13T11:13:25.451Z,99453.41
2023-04-13T11:15:52.278Z,99467.25
2023-04-13T11:18:26.524Z,99466.44
2023-04-13T11:20:53.748Z,99477.28
2023-04-13T11:23:23.453Z,99466.47
2023-04-13T11:25:59.343Z,99469.84
2023-04-13T11:28:37.467Z,99475.09
2023-04-13T11:31:05.169Z,99476.69
2023-04-13T11:33:33.431Z,99474.06
2023-04-13T11:36:00.859Z,99475.84
2023-04-13T11:38:28.856Z,99470.91
2023-04-13T11:41:15.030Z,99464.09
2023-04-13T11:43:46.046Z,99473.53
2023-04-13T11:46:13.744Z,99483.63
2023-04-13T11:48:40.552Z,99476.50
2023-04-13T11:51:07.530Z,99480.13
2023-04-13T11:53:36.348Z,99479.28
2023-04-13T11:56:02.935Z,99489.59
2023-04-13T11:58:29.431Z,99487.19
2023-04-13T12:00:59.873Z,99487.13
2023-04-13T12:03:47.043Z,99489.97
2023-04-13T12:06:20.690Z,99485.06
2023-04-13T12:08:51.711Z,99494.47
2023-04-13T12:11:41.210Z,99495.69
2023-04-13T12:14:45.994Z,99492.13
2023-04-13T12:17:34.930Z,99495.09
2023-04-13T12:20:00.610Z,99497.97
2023-04-13T12:22:50.809Z,99501.00
2023-04-13T12:25:24.013Z,99498.63
2023-04-13T12:27:52.360Z,99498.28
2023-04-13T12:30:21.225Z,99504.72
2023-04-13T12:32:51.581Z,99500.59
2023-04-13T12:35:21.558Z,99508.16
2023-04-13T12:37:49.184Z,99508.25
2023-04-13T12:40:18.474Z,99519.31
2023-04-13T12:42:49.051Z,99524.25
2023-04-13T12:45:16.697Z,99519.22
2023-04-13T12:47:43.305Z,99512.88
2023-04-13T12:50:11.382Z,99516.13
2023-04-13T12:52:41.463Z,99521.63
2023-04-13T12:55:08.613Z,99524.34
2023-04-13T12:57:35.251Z,99528.72
2023-04-13T13:00:01.711Z,99522.38
2023-04-13T13:02:31.013Z,99526.88
2023-04-13T13:04:59.276Z,99515.78
2023-04-13T13:07:27.542Z,99522.81
2023-04-13T13:09:54.079Z,99525.34
2023-04-13T13:12:20.592Z,99523.53
2023-04-13T13:14:47.088Z,99536.16
2023-04-13T13:17:13.634Z,99536.38
2023-04-13T13:19:40.072Z,99532.22
2023-04-13T13:22:06.516Z,99534.13
2023-04-13T13:24:33.141Z,99539.84
2023-04-13T13:29:33.206Z,99545.66
2023-04-13T13:32:00.498Z,99530.75
2023-04-13T13:34:27.158Z,99541.03
2023-04-13T13:36:53.594Z,99538.06
2023-04-13T13:39:22.358Z,99542.38
2023-04-13T13:41:49.380Z,99545.69
2023-04-13T13:44:16.764Z,99541.78
2023-04-13T13:46:43.649Z,99548.41
2023-04-13T13:49:11.685Z,99545.44
2023-04-13T13:51:38.194Z,99553.47
2023-04-13T13:54:04.824Z,99555.13
2023-04-13T13:56:31.261Z,99554.88
2023-04-13T13:58:58.747Z,99567.28
2023-04-13T14:01:25.521Z,99554.88
2023-04-13T14:03:52.111Z,99565.56
2023-04-13T14:06:18.559Z,99556.03
2023-04-13T14:08:45.045Z,99562.00
2023-04-13T14:11:12.563Z,99563.84
2023-04-13T14:13:39.046Z,99567.88
2023-04-13T14:16:06.102Z,99571.84
2023-04-13T14:18:32.703Z,99575.66
2023-04-13T14:20:59.278Z,99580.47
2023-04-13T14:23:25.770Z,99576.38
2023-04-13T14:25:52.482Z,99590.94
2023-04-13T14:28:18.943Z,99584.66
2023-04-13T14:30:45.572Z,99592.44
2023-04-13T14:33:14.643Z,99592.09
2023-04-13T14:35:41.288Z,99597.94
2023-04-13T14:38:08.369Z,99595.97
2023-04-13T14:40:35.924Z,99590.19
2023-04-13T14:43:02.422Z,99602.22
2023-04-13T14:45:28.943Z,99600.59
2023-04-13T14:47:55.659Z,99609.44
2023-04-13T14:50:22.485Z,99632.44
2023-04-13T14:52:50.116Z,99617.97
2023-04-13T14:55:17.699Z,99622.47
2023-04-13T14:57:45.184Z,99625.66
2023-04-13T15:00:18.058Z,99629.28
2023-04-13T15:02:44.652Z,99637.22
2023-04-13T15:05:11.306Z,99648.84
2023-04-13T15:07:38.029Z,99631.94
2023-04-13T15:10:05.523Z,99633.00
2023-04-13T15:12:32.252Z,99641.13
2023-04-13T15:14:58.646Z,99631.41
2023-04-13T15:17:26.355Z,99641.25
2023-04-13T15:19:52.881Z,99633.00
2023-04-13T15:22:19.374Z,99641.91
2023-04-13T15:24:45.794Z,99633.84
2023-04-13T15:27:12.391Z,99637.53
2023-04-13T15:29:38.854Z,99643.69
2023-04-13T15:32:05.589Z,99645.19
2023-04-13T15:34:32.068Z,99643.22
2023-04-13T15:36:59.351Z,99657.78
2023-04-13T15:39:25.953Z,99652.59
2023-04-13T15:41:54.154Z,99656.84
2023-04-13T15:44:21.251Z,99667.78
2023-04-13T15:46:48.058Z,99664.34
2023-04-13T15:49:15.415Z,99674.50
2023-04-13T15:51:41.854Z,99669.91
2023-04-13T15:54:08.314Z,99670.72
2023-04-13T15:56:34.692Z,99670.03
2023-04-13T15:59:01.548Z,99680.53
2023-04-13T16:01:28.351Z,99683.69
2023-04-13T16:03:55.873Z,99689.22
2023-04-13T16:06:22.694Z,99688.22
2023-04-13T16:08:49.358Z,99686.59
2023-04-13T16:11:15.810Z,99694.66
2023-04-13T16:13:49.351Z,99706.97
2023-04-13T16:16:18.077Z,99709.06
2023-04-13T16:18:44.548Z,99701.13
2023-04-13T16:21:12.296Z,99702.13
2023-04-13T16:23:38.713Z,99704.59
2023-04-13T16:26:06.267Z,99691.81
2023-04-13T16:28:32.728Z,99705.66
2023-04-13T16:30:59.447Z,99695.84
2023-04-13T16:33:25.997Z,99698.78
2023-04-13T16:35:52.530Z,99707.69
2023-04-13T16:38:18.983Z,99711.25
2023-04-13T16:40:45.629Z,99710.84
2023-04-13T16:43:12.512Z,99712.97
2023-04-13T16:45:39.010Z,99716.50
2023-04-13T16:48:05.825Z,99725.19
2023-04-13T16:50:32.746Z,99717.53
2023-04-13T16:52:59.561Z,99728.31
2023-04-13T16:55:28.263Z,99723.28
2023-04-13T16:57:55.152Z,99736.25
2023-04-13T17:00:22.021Z,99727.53
2023-04-13T17:02:48.777Z,99732.38
2023-04-13T17:05:16.134Z,99742.34
2023-04-13T17:07:44.101Z,99743.47
2023-04-13T17:10:12.845Z,99747.19
2023-04-13T17:12:39.610Z,99744.47
2023-04-13T17:15:06.706Z,99757.22
2023-04-13T17:17:34.631Z,99755.16
2023-04-13T17:20:01.736Z,99759.47
2023-04-13T17:22:28.317Z,99761.78
2023-04-13T17:24:55.773Z,99760.06
2023-04-13T17:27:22.384Z,99762.56
2023-04-13T17:29:49.739Z,99768.28
2023-04-13T17:32:16.569Z,99773.00
2023-04-13T17:34:44.566Z,99777.13
2023-04-13T17:37:11.711Z,99783.31
2023-04-13T17:39:42.071Z,99783.16
2023-04-13T17:42:09.399Z,99791.81
2023-04-13T17:44:36.021Z,99789.72
2023-04-13T17:47:02.513Z,99789.19
2023-04-13T17:49:29.136Z,99797.41
2023-04-13T17:51:55.658Z,99799.09
2023-04-13T17:54:22.110Z,99803.63
2023-04-13T17:56:48.535Z,99802.09
2023-04-13T17:59:15.823Z,99800.00
2023-04-13T18:01:43.467Z,99810.81
2023-04-13T18:04:14.580Z,99809.88
2023-04-13T18:06:41.460Z,99815.03
2023-04-13T18:09:08.872Z,99820.53
2023-04-13T18:11:35.861Z,99825.19
2023-04-13T18:14:02.933Z,99829.13
2023-04-13T18:16:31.665Z,99837.13
2023-04-13T18:19:01.738Z,99840.78
2023-04-13T18:21:28.677Z,99841.22
2023-04-13T18:23:55.458Z,99844.59
2023-04-13T18:26:22.633Z,99845.59
2023-04-13T18:28:49.272Z,99852.75
2023-04-13T18:31:15.762Z,99862.44
2023-04-13T18:33:42.271Z,99865.50
2023-04-13T18:36:08.743Z,99865.66
2023-04-13T18:38:35.387Z,99878.69
2023-04-13T18:41:01.927Z,99879.03
2023-04-13T18:43:28.364Z,99886.81
2023-04-13T18:45:55.078Z,99885.97
2023-04-13T18:48:21.507Z,99892.41
2023-04-13T18:50:48.383Z,99901.59
2023-04-13T18:53:14.825Z,99907.25
2023-04-13T18:55:41.244Z,99912.13
2023-04-13T18:58:07.767Z,99915.81
2023-04-13T19:00:34.245Z,99926.16
2023-04-13T19:03:01.165Z,99935.78
2023-04-13T19:05:27.907Z,99936.00
2023-04-13T19:07:59.144Z,99937.78
2023-04-13T19:10:26.441Z,99939.16
2023-04-13T19:12:52.903Z,99946.34
2023-04-13T19:15:19.787Z,99949.25
2023-04-13T19:17:47.299Z,99948.09
2023-04-13T19:20:14.443Z,99945.28
2023-04-13T19:22:41.012Z,99960.59
2023-04-13T19:25:13.970Z,99954.88
2023-04-13T19:27:50.172Z,99954.19
2023-04-13T19:30:18.254Z,99953.69
2023-04-13T19:32:46.836Z,99958.97
2023-04-13T19:35:13.899Z,99963.41
2023-04-13T19:37:41.082Z,99960.56
2023-04-13T19:40:13.536Z,99965.72
2023-04-13T19:42:41.645Z,99973.91
2023-04-13T19:45:09.546Z,99982.88
2023-04-13T19:47:40.459Z,99987.28
2023-04-13T19:50:08.996Z,99985.81
2023-04-13T19:52:35.841Z,99985.91
2023-04-13T19:55:02.267Z,99981.63
2023-04-13T19:57:29.232Z,99984.00
2023-04-13T19:59:55.855Z,99989.66
2023-04-13T20:02:22.536Z,99986.09
2023-04-13T20:04:50.006Z,99978.53
2023-04-13T20:07:17.908Z,99984.56
2023-04-13T20:09:44.861Z,99990.31
2023-04-13T20:12:12.096Z,99987.63
2023-04-13T20:14:42.067Z,99989.31
2023-04-13T20:17:09.235Z,99996.22
2023-04-13T20:19:36.418Z,99988.31
2023-04-13T20:22:04.407Z,99990.19
2023-04-13T20:24:31.530Z,99990.47
2023-04-13T20:26:58.691Z,99999.56
2023-04-13T20:29:26.968Z,99985.66
2023-04-13T20:31:54.116Z,99995.78
2023-04-13T20:34:20.949Z,99991.13
2023-04-13T20:36:47.492Z,99998.78
2023-04-13T20:39:14.033Z,100001.56
2023-04-13T20:41:40.514Z,100002.16
2023-04-13T20:44:09.891Z,100004.59
2023-04-13T20:46:37.517Z,100002.28
2023-04-13T20:49:04.954Z,99992.78
2023-04-13T20:51:33.391Z,99999.34
2023-04-13T20:54:01.642Z,100002.53
2023-04-13T20:56:28.387Z,100008.81
2023-04-13T20:58:57.164Z,100009.19
2023-04-13T21:01:26.861Z,100011.75
2023-04-13T21:03:53.674Z,100012.41
2023-04-13T21:06:22.501Z,100016.81
2023-04-13T21:08:48.945Z,100016.69
2023-04-13T21:11:15.369Z,100020.06
2023-04-13T21:13:41.863Z,100025.03
2023-04-13T21:16:08.985Z,100022.75
2023-04-13T21:18:36.672Z,100024.44
2023-04-13T21:21:05.200Z,100022.75
2023-04-13T21:23:31.646Z,100023.94
2023-04-13T21:25:58.015Z,100027.53
2023-04-13T21:28:24.452Z,100032.06
2023-04-13T21:30:50.862Z,100033.41
2023-04-13T21:33:17.319Z,100029.44
2023-04-13T21:35:43.737Z,100032.66
2023-04-13T21:38:10.220Z,100029.59
2023-04-13T21:40:36.717Z,100029.50
2023-04-13T21:43:03.321Z,100024.66
2023-04-13T21:45:29.753Z,100031.06
2023-04-13T21:47:56.349Z,100035.44
2023-04-13T21:50:22.971Z,100028.69
2023-04-13T21:52:49.616Z,100031.91
2023-04-13T21:55:19.535Z,100024.75
2023-04-13T21:57:46.965Z,100022.63
2023-04-13T22:00:14.825Z,100026.91
2023-04-13T22:02:41.736Z,100027.00
2023-04-13T22:05:09.917Z,100025.63
2023-04-13T22:07:42.496Z,100023.22
2023-04-13T22:10:10.817Z,100027.47
2023-04-13T22:12:37.333Z,100019.22
2023-04-13T22:15:04.403Z,100025.66
2023-04-13T22:17:31.034Z,100030.38
2023-04-13T22:19:57.586Z,100035.09
2023-04-13T22:22:24.007Z,100032.78
2023-04-13T22:24:52.399Z,100035.41
2023-04-13T22:27:18.909Z,100040.22
2023-04-13T22:29:45.584Z,100044.34
2023-04-13T22:32:11.983Z,100035.94
2023-04-13T22:34:38.499Z,100047.09
2023-04-13T22:37:06.866Z,100042.34
2023-04-13T22:39:33.308Z,100055.66
2023-04-13T22:41:59.919Z,100049.94
2023-04-13T22:44:32.312Z,100044.38
2023-04-13T22:46:58.822Z,100055.13
2023-04-13T22:49:25.434Z,100047.59
2023-04-13T22:51:51.817Z,100049.09
2023-04-13T22:54:18.279Z,100041.22
2023-04-13T22:56:44.677Z,100043.06
2023-04-13T22:59:11.079Z,100031.16
2023-04-13T23:01:37.610Z,100030.31
2023-04-13T23:04:04.762Z,100039.00
2023-04-13T23:06:31.357Z,100042.41
2023-04-13T23:08:57.922Z,100037.31
2023-04-13T23:11:24.445Z,100039.25
2023-04-13T23:13:54.336Z,100045.91
2023-04-13T23:16:20.904Z,100040.41
2023-04-13T23:18:47.425Z,100043.53
2023-04-13T23:21:13.842Z,100046.81
2023-04-13T23:23:40.500Z,100037.03
2023-04-13T23:26:07.130Z,100042.44
2023-04-13T23:28:33.546Z,100057.41
2023-04-13T23:31:06.875Z,100046.16
2023-04-13T23:33:36.330Z,100049.25
2023-04-13T23:36:03.531Z,100052.06
2023-04-13T23:38:30.775Z,100053.22
2023-04-13T23:40:57.865Z,100059.19
2023-04-13T23:43:24.686Z,100054.53
2023-04-13T23:45:52.196Z,100059.25
2023-04-13T23:48:19.970Z,100059.41
2023-04-13T23:50:47.200Z,100055.31
2023-04-13T23:53:14.006Z,100051.88
2023-04-13T23:55:40.926Z,100046.75
2023-04-13T23:58:07.369Z,100057.97
